sensor_id;sensor_type;location;lat;lon;timestamp;P1;P2;P0
57049;PMS7003;42935;50.966;16.992;2022-10-31T00:00:17;44;33;22
57049;PMS7003;42935;50.966;16.992;2022-10-31T00:03:32;43;32;21
57049;PMS7003;42935;50.966;16.992;2022-10-31T00:06:40;38;30;19
57049;PMS7003;42935;50.966;16.992;2022-10-31T00:09:54;35;27;19
57049;PMS7003;42935;50.966;16.992;2022-10-31T00:13:05;33;30;21
57049;PMS7003;42935;50.966;16.992;2022-10-31T00:16:22;34;27;18
57049;PMS7003;42935;50.966;16.992;2022-10-31T00:19:37;37;30;19
57049;PMS7003;42935;50.966;16.992;2022-10-31T00:22:48;33;28;18
57049;PMS7003;42935;50.966;16.992;2022-10-31T00:26:00;38;27;18
57049;PMS7003;42935;50.966;16.992;2022-10-31T00:29:06;33;25;16
57049;PMS7003;42935;50.966;16.992;2022-10-31T00:32:28;36;27;18
57049;PMS7003;42935;50.966;16.992;2022-10-31T00:35:50;41;33;21
57049;PMS7003;42935;50.966;16.992;2022-10-31T00:38:57;42;33;22
57049;PMS7003;42935;50.966;16.992;2022-10-31T00:42:17;45;34;23
57049;PMS7003;42935;50.966;16.992;2022-10-31T00:45:32;43;34;22
57049;PMS7003;42935;50.966;16.992;2022-10-31T00:48:49;45;35;23
57049;PMS7003;42935;50.966;16.992;2022-10-31T00:51:58;48;38;24
57049;PMS7003;42935;50.966;16.992;2022-10-31T00:55:17;49;36;22
57049;PMS7003;42935;50.966;16.992;2022-10-31T00:58:28;47;37;24
57049;PMS7003;42935;50.966;16.992;2022-10-31T01:01:35;45;32;20
57049;PMS7003;42935;50.966;16.992;2022-10-31T01:04:47;38;31;20
57049;PMS7003;42935;50.966;16.992;2022-10-31T01:08:01;38;28;18
57049;PMS7003;42935;50.966;16.992;2022-10-31T01:11:09;39;25;18
57049;PMS7003;42935;50.966;16.992;2022-10-31T01:14:24;36;26;18
57049;PMS7003;42935;50.966;16.992;2022-10-31T01:17:53;31;25;16
57049;PMS7003;42935;50.966;16.992;2022-10-31T01:21:06;41;27;18
57049;PMS7003;42935;50.966;16.992;2022-10-31T01:24:25;38;29;19
57049;PMS7003;42935;50.966;16.992;2022-10-31T01:27:38;39;32;21
57049;PMS7003;42935;50.966;16.992;2022-10-31T01:30:48;35;28;20
57049;PMS7003;42935;50.966;16.992;2022-10-31T01:33:55;36;23;18
57049;PMS7003;42935;50.966;16.992;2022-10-31T01:37:10;33;27;18
57049;PMS7003;42935;50.966;16.992;2022-10-31T01:40:28;34;26;17
57049;PMS7003;42935;50.966;16.992;2022-10-31T01:50:30;28;24;14
57049;PMS7003;42935;50.966;16.992;2022-10-31T01:53:45;37;28;17
57049;PMS7003;42935;50.966;16.992;2022-10-31T01:56:52;29;23;17
57049;PMS7003;42935;50.966;16.992;2022-10-31T02:00:02;37;31;20
57049;PMS7003;42935;50.966;16.992;2022-10-31T02:03:22;37;29;18
57049;PMS7003;42935;50.966;16.992;2022-10-31T02:06:38;39;29;18
57049;PMS7003;42935;50.966;16.992;2022-10-31T02:09:53;31;25;17
57049;PMS7003;42935;50.966;16.992;2022-10-31T02:13:07;40;27;18
57049;PMS7003;42935;50.966;16.992;2022-10-31T02:16:21;39;31;20
57049;PMS7003;42935;50.966;16.992;2022-10-31T02:29:52;32;28;19
57049;PMS7003;42935;50.966;16.992;2022-10-31T02:33:14;30;22;17
57049;PMS7003;42935;50.966;16.992;2022-10-31T02:41:20;33;26;17
57049;PMS7003;42935;50.966;16.992;2022-10-31T02:47:53;31;24;18
57049;PMS7003;42935;50.966;16.992;2022-10-31T02:51:10;34;27;16
57049;PMS7003;42935;50.966;16.992;2022-10-31T02:54:21;28;22;17
57049;PMS7003;42935;50.966;16.992;2022-10-31T02:57:41;28;21;14
57049;PMS7003;42935;50.966;16.992;2022-10-31T03:07:34;27;20;14
57049;PMS7003;42935;50.966;16.992;2022-10-31T03:14:09;26;24;15
57049;PMS7003;42935;50.966;16.992;2022-10-31T03:17:23;28;23;17
57049;PMS7003;42935;50.966;16.992;2022-10-31T03:24:05;27;22;16
57049;PMS7003;42935;50.966;16.992;2022-10-31T03:27:15;30;22;15
57049;PMS7003;42935;50.966;16.992;2022-10-31T03:30:28;34;25;17
57049;PMS7003;42935;50.966;16.992;2022-10-31T03:33:46;34;26;16
57049;PMS7003;42935;50.966;16.992;2022-10-31T03:36:57;38;26;17
57049;PMS7003;42935;50.966;16.992;2022-10-31T03:40:12;36;31;20
57049;PMS7003;42935;50.966;16.992;2022-10-31T03:43:28;28;24;18
57049;PMS7003;42935;50.966;16.992;2022-10-31T03:46:42;35;26;17
57049;PMS7003;42935;50.966;16.992;2022-10-31T03:49:56;35;27;17
57049;PMS7003;42935;50.966;16.992;2022-10-31T03:53:15;28;22;15
57049;PMS7003;42935;50.966;16.992;2022-10-31T03:56:33;31;23;15
57049;PMS7003;42935;50.966;16.992;2022-10-31T04:03:14;28;23;15
57049;PMS7003;42935;50.966;16.992;2022-10-31T04:06:31;31;21;14
57049;PMS7003;42935;50.966;16.992;2022-10-31T04:09:52;24;20;15
57049;PMS7003;42935;50.966;16.992;2022-10-31T04:13:08;28;23;15
57049;PMS7003;42935;50.966;16.992;2022-10-31T04:16:21;30;22;15
57049;PMS7003;42935;50.966;16.992;2022-10-31T04:19:32;27;20;14
57049;PMS7003;42935;50.966;16.992;2022-10-31T04:22:38;27;21;15
57049;PMS7003;42935;50.966;16.992;2022-10-31T04:25:48;27;18;13
57049;PMS7003;42935;50.966;16.992;2022-10-31T04:28:58;28;22;16
57049;PMS7003;42935;50.966;16.992;2022-10-31T04:32:10;29;24;14
57049;PMS7003;42935;50.966;16.992;2022-10-31T04:35:20;26;21;15
57049;PMS7003;42935;50.966;16.992;2022-10-31T04:38:31;24;21;15
57049;PMS7003;42935;50.966;16.992;2022-10-31T04:41:40;27;22;15
57049;PMS7003;42935;50.966;16.992;2022-10-31T04:44:45;25;21;14
57049;PMS7003;42935;50.966;16.992;2022-10-31T04:48:23;25;20;15
57049;PMS7003;42935;50.966;16.992;2022-10-31T04:51:32;27;19;14
57049;PMS7003;42935;50.966;16.992;2022-10-31T04:54:38;27;19;13
57049;PMS7003;42935;50.966;16.992;2022-10-31T04:57:49;24;21;15
57049;PMS7003;42935;50.966;16.992;2022-10-31T05:00:55;25;21;15
57049;PMS7003;42935;50.966;16.992;2022-10-31T05:04:00;26;22;15
57049;PMS7003;42935;50.966;16.992;2022-10-31T05:07:07;29;23;14
57049;PMS7003;42935;50.966;16.992;2022-10-31T05:10:18;24;20;15
57049;PMS7003;42935;50.966;16.992;2022-10-31T05:13:31;31;25;15
57049;PMS7003;42935;50.966;16.992;2022-10-31T05:16:36;25;19;14
57049;PMS7003;42935;50.966;16.992;2022-10-31T05:19:43;25;20;14
57049;PMS7003;42935;50.966;16.992;2022-10-31T05:22:58;27;20;15
57049;PMS7003;42935;50.966;16.992;2022-10-31T05:26:08;28;23;15
57049;PMS7003;42935;50.966;16.992;2022-10-31T05:29:18;31;24;16
57049;PMS7003;42935;50.966;16.992;2022-10-31T05:35:52;25;17;12
57049;PMS7003;42935;50.966;16.992;2022-10-31T05:39:03;23;18;12
57049;PMS7003;42935;50.966;16.992;2022-10-31T05:42:10;26;20;14
57049;PMS7003;42935;50.966;16.992;2022-10-31T05:45:21;24;20;13
57049;PMS7003;42935;50.966;16.992;2022-10-31T05:48:30;25;19;14
57049;PMS7003;42935;50.966;16.992;2022-10-31T05:51:40;28;24;17
57049;PMS7003;42935;50.966;16.992;2022-10-31T05:54:47;29;19;13
57049;PMS7003;42935;50.966;16.992;2022-10-31T05:57:53;33;21;15
57049;PMS7003;42935;50.966;16.992;2022-10-31T06:01:00;25;20;14
57049;PMS7003;42935;50.966;16.992;2022-10-31T06:04:07;26;19;12
57049;PMS7003;42935;50.966;16.992;2022-10-31T06:07:18;28;21;15
57049;PMS7003;42935;50.966;16.992;2022-10-31T06:10:23;26;22;15
57049;PMS7003;42935;50.966;16.992;2022-10-31T06:13:33;23;18;13
57049;PMS7003;42935;50.966;16.992;2022-10-31T06:16:48;26;19;13
57049;PMS7003;42935;50.966;16.992;2022-10-31T06:20:00;22;18;13
57049;PMS7003;42935;50.966;16.992;2022-10-31T06:23:11;25;19;13
57049;PMS7003;42935;50.966;16.992;2022-10-31T06:26:18;23;16;12
57049;PMS7003;42935;50.966;16.992;2022-10-31T06:29:24;22;17;12
57049;PMS7003;42935;50.966;16.992;2022-10-31T06:32:30;23;18;13
57049;PMS7003;42935;50.966;16.992;2022-10-31T06:35:37;23;17;12
57049;PMS7003;42935;50.966;16.992;2022-10-31T06:38:53;19;16;12
57049;PMS7003;42935;50.966;16.992;2022-10-31T06:42:02;21;18;13
57049;PMS7003;42935;50.966;16.992;2022-10-31T06:45:11;21;18;12
57049;PMS7003;42935;50.966;16.992;2022-10-31T06:48:18;25;19;14
57049;PMS7003;42935;50.966;16.992;2022-10-31T06:51:25;30;22;15
57049;PMS7003;42935;50.966;16.992;2022-10-31T06:55:05;24;20;16
57049;PMS7003;42935;50.966;16.992;2022-10-31T06:58:17;22;18;13
57049;PMS7003;42935;50.966;16.992;2022-10-31T07:01:31;22;18;13
57049;PMS7003;42935;50.966;16.992;2022-10-31T07:04:40;20;18;13
57049;PMS7003;42935;50.966;16.992;2022-10-31T07:07:59;24;20;13
57049;PMS7003;42935;50.966;16.992;2022-10-31T07:11:08;21;18;13
57049;PMS7003;42935;50.966;16.992;2022-10-31T07:14:57;22;16;13
57049;PMS7003;42935;50.966;16.992;2022-10-31T07:18:04;26;19;13
57049;PMS7003;42935;50.966;16.992;2022-10-31T07:21:11;31;20;14
57049;PMS7003;42935;50.966;16.992;2022-10-31T07:24:55;26;20;14
57049;PMS7003;42935;50.966;16.992;2022-10-31T07:28:06;26;20;12
57049;PMS7003;42935;50.966;16.992;2022-10-31T07:31:17;28;22;15
57049;PMS7003;42935;50.966;16.992;2022-10-31T07:34:31;24;20;14
57049;PMS7003;42935;50.966;16.992;2022-10-31T07:37:44;23;19;14
57049;PMS7003;42935;50.966;16.992;2022-10-31T07:41:25;30;21;14
57049;PMS7003;42935;50.966;16.992;2022-10-31T07:44:31;26;21;14
57049;PMS7003;42935;50.966;16.992;2022-10-31T07:47:43;23;20;15
57049;PMS7003;42935;50.966;16.992;2022-10-31T07:50:54;27;19;12
57049;PMS7003;42935;50.966;16.992;2022-10-31T07:54:04;24;20;13
57049;PMS7003;42935;50.966;16.992;2022-10-31T07:57:11;22;16;12
57049;PMS7003;42935;50.966;16.992;2022-10-31T08:00:18;26;19;14
57049;PMS7003;42935;50.966;16.992;2022-10-31T08:03:27;21;18;13
57049;PMS7003;42935;50.966;16.992;2022-10-31T08:06:42;22;17;13
57049;PMS7003;42935;50.966;16.992;2022-10-31T08:09:53;24;18;11
57049;PMS7003;42935;50.966;16.992;2022-10-31T08:13:03;24;18;12
57049;PMS7003;42935;50.966;16.992;2022-10-31T08:16:14;30;24;17
57049;PMS7003;42935;50.966;16.992;2022-10-31T08:19:24;30;23;15
57049;PMS7003;42935;50.966;16.992;2022-10-31T08:22:31;27;21;16
57049;PMS7003;42935;50.966;16.992;2022-10-31T08:25:41;24;19;12
57049;PMS7003;42935;50.966;16.992;2022-10-31T08:28:48;21;17;12
57049;PMS7003;42935;50.966;16.992;2022-10-31T08:31:57;22;17;12
57049;PMS7003;42935;50.966;16.992;2022-10-31T08:35:18;22;18;12
57049;PMS7003;42935;50.966;16.992;2022-10-31T08:38:26;23;20;14
57049;PMS7003;42935;50.966;16.992;2022-10-31T08:41:32;27;15;11
57049;PMS7003;42935;50.966;16.992;2022-10-31T08:44:42;20;15;11
57049;PMS7003;42935;50.966;16.992;2022-10-31T08:48:00;19;17;10
57049;PMS7003;42935;50.966;16.992;2022-10-31T08:51:12;22;16;11
57049;PMS7003;42935;50.966;16.992;2022-10-31T08:54:18;15;12;9
57049;PMS7003;42935;50.966;16.992;2022-10-31T08:57:26;19;15;10
57049;PMS7003;42935;50.966;16.992;2022-10-31T09:00:37;17;12;9
57049;PMS7003;42935;50.966;16.992;2022-10-31T09:04:19;20;14;10
57049;PMS7003;42935;50.966;16.992;2022-10-31T09:07:31;18;15;10
57049;PMS7003;42935;50.966;16.992;2022-10-31T09:11:10;16;12;10
57049;PMS7003;42935;50.966;16.992;2022-10-31T09:14:48;16;14;10
57049;PMS7003;42935;50.966;16.992;2022-10-31T09:18:04;21;15;11
57049;PMS7003;42935;50.966;16.992;2022-10-31T09:21:19;18;13;8
57049;PMS7003;42935;50.966;16.992;2022-10-31T09:24:26;16;11;8
57049;PMS7003;42935;50.966;16.992;2022-10-31T09:27:37;14;11;8
57049;PMS7003;42935;50.966;16.992;2022-10-31T09:30:46;15;10;7
57049;PMS7003;42935;50.966;16.992;2022-10-31T09:33:54;11;10;6
57049;PMS7003;42935;50.966;16.992;2022-10-31T09:37:02;13;11;8
57049;PMS7003;42935;50.966;16.992;2022-10-31T09:40:09;12;12;9
57049;PMS7003;42935;50.966;16.992;2022-10-31T09:53:54;16;11;7
57049;PMS7003;42935;50.966;16.992;2022-10-31T09:57:16;13;9;7
57049;PMS7003;42935;50.966;16.992;2022-10-31T10:00:30;12;10;7
57049;PMS7003;42935;50.966;16.992;2022-10-31T10:03:45;15;10;8
57049;PMS7003;42935;50.966;16.992;2022-10-31T10:06:55;13;10;8
57049;PMS7003;42935;50.966;16.992;2022-10-31T10:16:51;13;9;7
57049;PMS7003;42935;50.966;16.992;2022-10-31T10:23:33;11;10;8
57049;PMS7003;42935;50.966;16.992;2022-10-31T10:33:28;16;14;10
57049;PMS7003;42935;50.966;16.992;2022-10-31T10:36:49;13;11;9
57049;PMS7003;42935;50.966;16.992;2022-10-31T10:43:32;12;9;8
57049;PMS7003;42935;50.966;16.992;2022-10-31T10:53:34;14;11;8
57049;PMS7003;42935;50.966;16.992;2022-10-31T10:57:11;14;10;7
57049;PMS7003;42935;50.966;16.992;2022-10-31T11:00:56;13;11;9
57049;PMS7003;42935;50.966;16.992;2022-10-31T11:07:36;11;10;8
57049;PMS7003;42935;50.966;16.992;2022-10-31T11:10:56;11;9;7
57049;PMS7003;42935;50.966;16.992;2022-10-31T11:14:12;11;9;7
57049;PMS7003;42935;50.966;16.992;2022-10-31T11:20:50;10;10;7
57049;PMS7003;42935;50.966;16.992;2022-10-31T11:27:25;10;9;7
57049;PMS7003;42935;50.966;16.992;2022-10-31T11:34:03;10;9;7
57049;PMS7003;42935;50.966;16.992;2022-10-31T11:37:24;13;11;7
57049;PMS7003;42935;50.966;16.992;2022-10-31T11:47:26;10;9;7
57049;PMS7003;42935;50.966;16.992;2022-10-31T11:50:39;13;10;7
57049;PMS7003;42935;50.966;16.992;2022-10-31T11:53:52;12;11;8
57049;PMS7003;42935;50.966;16.992;2022-10-31T11:57:03;12;10;7
57049;PMS7003;42935;50.966;16.992;2022-10-31T12:04:08;14;11;9
57049;PMS7003;42935;50.966;16.992;2022-10-31T12:07:17;13;11;9
57049;PMS7003;42935;50.966;16.992;2022-10-31T12:10:31;14;11;8
57049;PMS7003;42935;50.966;16.992;2022-10-31T12:27:11;12;10;8
57049;PMS7003;42935;50.966;16.992;2022-10-31T12:30:39;13;11;8
57049;PMS7003;42935;50.966;16.992;2022-10-31T12:41:06;16;12;9
57049;PMS7003;42935;50.966;16.992;2022-10-31T12:57:54;13;11;9
57049;PMS7003;42935;50.966;16.992;2022-10-31T13:04:36;15;11;9
57049;PMS7003;42935;50.966;16.992;2022-10-31T13:07:55;16;12;10
57049;PMS7003;42935;50.966;16.992;2022-10-31T13:14:30;22;15;11
57049;PMS7003;42935;50.966;16.992;2022-10-31T13:17:45;18;13;9
57049;PMS7003;42935;50.966;16.992;2022-10-31T13:21:03;20;14;11
57049;PMS7003;42935;50.966;16.992;2022-10-31T13:24:22;13;12;10
57049;PMS7003;42935;50.966;16.992;2022-10-31T13:27:43;14;12;10
57049;PMS7003;42935;50.966;16.992;2022-10-31T13:30:54;14;14;10
57049;PMS7003;42935;50.966;16.992;2022-10-31T13:34:03;14;12;9
57049;PMS7003;42935;50.966;16.992;2022-10-31T13:40:45;20;14;10
57049;PMS7003;42935;50.966;16.992;2022-10-31T13:44:07;24;18;14
57049;PMS7003;42935;50.966;16.992;2022-10-31T13:47:26;15;13;11
57049;PMS7003;42935;50.966;16.992;2022-10-31T13:50:40;16;14;11
57049;PMS7003;42935;50.966;16.992;2022-10-31T14:00:28;17;15;11
57049;PMS7003;42935;50.966;16.992;2022-10-31T14:03:46;18;13;11
57049;PMS7003;42935;50.966;16.992;2022-10-31T14:13:38;16;12;9
57049;PMS7003;42935;50.966;16.992;2022-10-31T14:16:54;13;10;9
57049;PMS7003;42935;50.966;16.992;2022-10-31T14:26:54;14;12;10
57049;PMS7003;42935;50.966;16.992;2022-10-31T14:30:19;17;13;10
57049;PMS7003;42935;50.966;16.992;2022-10-31T14:33:22;15;11;9
57049;PMS7003;42935;50.966;16.992;2022-10-31T14:56:46;15;12;9
57049;PMS7003;42935;50.966;16.992;2022-10-31T15:00:00;14;13;9
57049;PMS7003;42935;50.966;16.992;2022-10-31T15:03:21;17;14;10
57049;PMS7003;42935;50.966;16.992;2022-10-31T15:06:40;15;14;10
57049;PMS7003;42935;50.966;16.992;2022-10-31T15:09:58;14;12;9
57049;PMS7003;42935;50.966;16.992;2022-10-31T15:16:34;16;13;10
57049;PMS7003;42935;50.966;16.992;2022-10-31T15:19:48;16;14;10
57049;PMS7003;42935;50.966;16.992;2022-10-31T15:22:58;17;14;11
57049;PMS7003;42935;50.966;16.992;2022-10-31T15:26:04;20;11;8
57049;PMS7003;42935;50.966;16.992;2022-10-31T15:29:19;17;13;8
57049;PMS7003;42935;50.966;16.992;2022-10-31T15:32:34;17;13;10
57049;PMS7003;42935;50.966;16.992;2022-10-31T15:35:57;19;14;11
57049;PMS7003;42935;50.966;16.992;2022-10-31T15:39:05;16;14;10
57049;PMS7003;42935;50.966;16.992;2022-10-31T15:42:51;15;13;10
57049;PMS7003;42935;50.966;16.992;2022-10-31T15:46:09;24;20;12
57049;PMS7003;42935;50.966;16.992;2022-10-31T15:49:26;24;17;13
57049;PMS7003;42935;50.966;16.992;2022-10-31T15:52:44;22;17;13
57049;PMS7003;42935;50.966;16.992;2022-10-31T15:56:02;21;17;13
57049;PMS7003;42935;50.966;16.992;2022-10-31T15:59:28;22;20;13
57049;PMS7003;42935;50.966;16.992;2022-10-31T16:06:34;26;21;15
57049;PMS7003;42935;50.966;16.992;2022-10-31T16:13:12;28;20;14
57049;PMS7003;42935;50.966;16.992;2022-10-31T16:16:23;21;17;12
57049;PMS7003;42935;50.966;16.992;2022-10-31T16:19:34;23;19;14
57049;PMS7003;42935;50.966;16.992;2022-10-31T16:22:51;23;17;12
57049;PMS7003;42935;50.966;16.992;2022-10-31T16:25:58;16;14;10
57049;PMS7003;42935;50.966;16.992;2022-10-31T16:29:03;20;17;12
57049;PMS7003;42935;50.966;16.992;2022-10-31T16:35:34;23;17;12
57049;PMS7003;42935;50.966;16.992;2022-10-31T16:38:47;16;14;11
57049;PMS7003;42935;50.966;16.992;2022-10-31T16:41:56;20;18;13
57049;PMS7003;42935;50.966;16.992;2022-10-31T16:45:06;20;15;10
57049;PMS7003;42935;50.966;16.992;2022-10-31T16:48:22;22;18;12
57049;PMS7003;42935;50.966;16.992;2022-10-31T16:51:32;24;18;12
57049;PMS7003;42935;50.966;16.992;2022-10-31T16:54:48;24;19;12
57049;PMS7003;42935;50.966;16.992;2022-10-31T16:57:58;21;15;11
57049;PMS7003;42935;50.966;16.992;2022-10-31T17:01:06;19;15;11
57049;PMS7003;42935;50.966;16.992;2022-10-31T17:04:17;20;17;13
57049;PMS7003;42935;50.966;16.992;2022-10-31T17:07:27;26;19;14
57049;PMS7003;42935;50.966;16.992;2022-10-31T17:10:41;21;18;13
57049;PMS7003;42935;50.966;16.992;2022-10-31T17:13:52;22;16;11
57049;PMS7003;42935;50.966;16.992;2022-10-31T17:17:04;32;24;16
57049;PMS7003;42935;50.966;16.992;2022-10-31T17:20:21;37;32;20
57049;PMS7003;42935;50.966;16.992;2022-10-31T17:23:33;45;33;21
57049;PMS7003;42935;50.966;16.992;2022-10-31T17:26:45;25;19;11
57049;PMS7003;42935;50.966;16.992;2022-10-31T17:29:58;26;21;15
57049;PMS7003;42935;50.966;16.992;2022-10-31T17:33:17;20;17;13
57049;PMS7003;42935;50.966;16.992;2022-10-31T17:36:24;21;17;13
57049;PMS7003;42935;50.966;16.992;2022-10-31T17:39:33;21;16;10
57049;PMS7003;42935;50.966;16.992;2022-10-31T17:42:51;22;19;14
57049;PMS7003;42935;50.966;16.992;2022-10-31T17:46:09;22;19;12
57049;PMS7003;42935;50.966;16.992;2022-10-31T17:49:18;22;15;12
57049;PMS7003;42935;50.966;16.992;2022-10-31T17:52:28;16;15;10
57049;PMS7003;42935;50.966;16.992;2022-10-31T17:55:42;19;16;11
57049;PMS7003;42935;50.966;16.992;2022-10-31T17:58:56;26;17;13
57049;PMS7003;42935;50.966;16.992;2022-10-31T18:02:06;24;22;16
57049;PMS7003;42935;50.966;16.992;2022-10-31T18:05:18;24;20;14
57049;PMS7003;42935;50.966;16.992;2022-10-31T18:09:01;27;23;15
57049;PMS7003;42935;50.966;16.992;2022-10-31T18:12:15;30;22;16
57049;PMS7003;42935;50.966;16.992;2022-10-31T18:15:26;27;21;15
57049;PMS7003;42935;50.966;16.992;2022-10-31T18:18:38;30;26;18
57049;PMS7003;42935;50.966;16.992;2022-10-31T18:21:56;31;26;16
57049;PMS7003;42935;50.966;16.992;2022-10-31T18:25:07;32;26;17
57049;PMS7003;42935;50.966;16.992;2022-10-31T18:28:21;82;67;43
57049;PMS7003;42935;50.966;16.992;2022-10-31T18:31:37;67;52;34
57049;PMS7003;42935;50.966;16.992;2022-10-31T18:34:53;57;45;29
57049;PMS7003;42935;50.966;16.992;2022-10-31T18:38:08;54;42;27
57049;PMS7003;42935;50.966;16.992;2022-10-31T18:41:22;72;54;35
57049;PMS7003;42935;50.966;16.992;2022-10-31T18:44:36;51;38;26
57049;PMS7003;42935;50.966;16.992;2022-10-31T18:47:46;40;33;23
57049;PMS7003;42935;50.966;16.992;2022-10-31T18:51:00;37;30;20
57049;PMS7003;42935;50.966;16.992;2022-10-31T18:54:12;34;29;19
57049;PMS7003;42935;50.966;16.992;2022-10-31T18:57:22;38;31;20
57049;PMS7003;42935;50.966;16.992;2022-10-31T19:00:32;34;28;19
57049;PMS7003;42935;50.966;16.992;2022-10-31T19:03:51;38;29;20
57049;PMS7003;42935;50.966;16.992;2022-10-31T19:07:03;36;31;20
57049;PMS7003;42935;50.966;16.992;2022-10-31T19:10:14;44;35;24
57049;PMS7003;42935;50.966;16.992;2022-10-31T19:13:28;48;38;23
57049;PMS7003;42935;50.966;16.992;2022-10-31T19:16:44;45;35;22
57049;PMS7003;42935;50.966;16.992;2022-10-31T19:19:55;45;34;23
57049;PMS7003;42935;50.966;16.992;2022-10-31T19:23:04;40;33;23
57049;PMS7003;42935;50.966;16.992;2022-10-31T19:26:14;34;28;19
57049;PMS7003;42935;50.966;16.992;2022-10-31T19:29:28;42;34;23
57049;PMS7003;42935;50.966;16.992;2022-10-31T19:32:45;44;35;24
57049;PMS7003;42935;50.966;16.992;2022-10-31T19:36:00;44;34;23
57049;PMS7003;42935;50.966;16.992;2022-10-31T19:39:18;48;36;24
57049;PMS7003;42935;50.966;16.992;2022-10-31T19:42:33;50;36;22
57049;PMS7003;42935;50.966;16.992;2022-10-31T19:45:51;43;35;23
57049;PMS7003;42935;50.966;16.992;2022-10-31T19:49:01;49;38;25
57049;PMS7003;42935;50.966;16.992;2022-10-31T19:52:20;53;40;25
57049;PMS7003;42935;50.966;16.992;2022-10-31T19:55:30;42;32;23
57049;PMS7003;42935;50.966;16.992;2022-10-31T19:58:45;48;35;23
57049;PMS7003;42935;50.966;16.992;2022-10-31T20:02:00;47;34;23
57049;PMS7003;42935;50.966;16.992;2022-10-31T20:05:16;47;34;22
57049;PMS7003;42935;50.966;16.992;2022-10-31T20:08:35;46;36;22
57049;PMS7003;42935;50.966;16.992;2022-10-31T20:11:44;50;36;23
57049;PMS7003;42935;50.966;16.992;2022-10-31T20:14:55;44;35;23
57049;PMS7003;42935;50.966;16.992;2022-10-31T20:18:14;47;36;23
57049;PMS7003;42935;50.966;16.992;2022-10-31T20:21:32;52;40;26
57049;PMS7003;42935;50.966;16.992;2022-10-31T20:24:51;59;45;27
57049;PMS7003;42935;50.966;16.992;2022-10-31T20:28:08;60;44;27
57049;PMS7003;42935;50.966;16.992;2022-10-31T20:31:26;56;44;28
57049;PMS7003;42935;50.966;16.992;2022-10-31T20:34:43;56;42;28
57049;PMS7003;42935;50.966;16.992;2022-10-31T20:37:53;57;41;27
57049;PMS7003;42935;50.966;16.992;2022-10-31T20:41:08;56;38;25
57049;PMS7003;42935;50.966;16.992;2022-10-31T20:44:50;52;38;24
57049;PMS7003;42935;50.966;16.992;2022-10-31T20:48:01;48;38;25
57049;PMS7003;42935;50.966;16.992;2022-10-31T20:51:19;53;40;26
57049;PMS7003;42935;50.966;16.992;2022-10-31T20:54:41;54;40;27
57049;PMS7003;42935;50.966;16.992;2022-10-31T20:57:53;57;42;29
57049;PMS7003;42935;50.966;16.992;2022-10-31T21:01:09;58;43;27
57049;PMS7003;42935;50.966;16.992;2022-10-31T21:04:22;53;42;27
57049;PMS7003;42935;50.966;16.992;2022-10-31T21:07:30;70;51;33
57049;PMS7003;42935;50.966;16.992;2022-10-31T21:10:44;67;50;31
57049;PMS7003;42935;50.966;16.992;2022-10-31T21:13:58;68;48;30
57049;PMS7003;42935;50.966;16.992;2022-10-31T21:17:16;65;49;31
57049;PMS7003;42935;50.966;16.992;2022-10-31T21:20:34;67;51;31
57049;PMS7003;42935;50.966;16.992;2022-10-31T21:23:54;67;51;30
57049;PMS7003;42935;50.966;16.992;2022-10-31T21:27:13;76;56;34
57049;PMS7003;42935;50.966;16.992;2022-10-31T21:30:26;72;54;34
57049;PMS7003;42935;50.966;16.992;2022-10-31T21:33:37;71;53;33
57049;PMS7003;42935;50.966;16.992;2022-10-31T21:36:48;69;51;32
57049;PMS7003;42935;50.966;16.992;2022-10-31T21:40:03;75;53;33
57049;PMS7003;42935;50.966;16.992;2022-10-31T21:43:14;71;52;33
57049;PMS7003;42935;50.966;16.992;2022-10-31T21:46:32;75;54;34
57049;PMS7003;42935;50.966;16.992;2022-10-31T21:49:48;71;50;30
57049;PMS7003;42935;50.966;16.992;2022-10-31T21:53:06;71;52;34
57049;PMS7003;42935;50.966;16.992;2022-10-31T21:56:31;64;45;27
57049;PMS7003;42935;50.966;16.992;2022-10-31T21:59:42;64;48;30
57049;PMS7003;42935;50.966;16.992;2022-10-31T22:03:00;56;41;26
57049;PMS7003;42935;50.966;16.992;2022-10-31T22:06:19;59;43;26
57049;PMS7003;42935;50.966;16.992;2022-10-31T22:09:37;58;43;27
57049;PMS7003;42935;50.966;16.992;2022-10-31T22:13:02;57;42;28
57049;PMS7003;42935;50.966;16.992;2022-10-31T22:16:17;56;42;27
57049;PMS7003;42935;50.966;16.992;2022-10-31T22:19:32;56;40;26
57049;PMS7003;42935;50.966;16.992;2022-10-31T22:22:50;66;48;30
57049;PMS7003;42935;50.966;16.992;2022-10-31T22:26:10;83;59;36
57049;PMS7003;42935;50.966;16.992;2022-10-31T22:29:53;81;58;35
57049;PMS7003;42935;50.966;16.992;2022-10-31T22:33:12;91;68;38
57049;PMS7003;42935;50.966;16.992;2022-10-31T22:36:30;86;64;37
57049;PMS7003;42935;50.966;16.992;2022-10-31T22:39:45;85;66;37
57049;PMS7003;42935;50.966;16.992;2022-10-31T22:42:59;95;72;40
57049;PMS7003;42935;50.966;16.992;2022-10-31T22:46:39;77;54;33
57049;PMS7003;42935;50.966;16.992;2022-10-31T22:49:53;68;50;31
57049;PMS7003;42935;50.966;16.992;2022-10-31T22:53:06;82;58;36
57049;PMS7003;42935;50.966;16.992;2022-10-31T22:56:19;85;58;35
57049;PMS7003;42935;50.966;16.992;2022-10-31T22:59:35;73;53;33
57049;PMS7003;42935;50.966;16.992;2022-10-31T23:02:54;80;60;36
57049;PMS7003;42935;50.966;16.992;2022-10-31T23:06:11;82;59;36
57049;PMS7003;42935;50.966;16.992;2022-10-31T23:09:34;79;58;35
57049;PMS7003;42935;50.966;16.992;2022-10-31T23:12:48;81;58;36
57049;PMS7003;42935;50.966;16.992;2022-10-31T23:16:13;83;59;35
57049;PMS7003;42935;50.966;16.992;2022-10-31T23:19:23;91;67;38
57049;PMS7003;42935;50.966;16.992;2022-10-31T23:22:40;115;85;47
57049;PMS7003;42935;50.966;16.992;2022-10-31T23:25:56;115;89;49
57049;PMS7003;42935;50.966;16.992;2022-10-31T23:29:18;124;86;47
57049;PMS7003;42935;50.966;16.992;2022-10-31T23:32:37;112;83;46
57049;PMS7003;42935;50.966;16.992;2022-10-31T23:35:55;100;78;44
57049;PMS7003;42935;50.966;16.992;2022-10-31T23:39:13;87;63;38
57049;PMS7003;42935;50.966;16.992;2022-10-31T23:42:22;77;56;33
57049;PMS7003;42935;50.966;16.992;2022-10-31T23:45:42;78;56;34
57049;PMS7003;42935;50.966;16.992;2022-10-31T23:49:01;75;54;35
57049;PMS7003;42935;50.966;16.992;2022-10-31T23:52:20;76;55;33
57049;PMS7003;42935;50.966;16.992;2022-10-31T23:55:33;73;55;34